Time;durP1;ratioP1;P1;durP2;ratioP2;P2;SDS_P1;SDS_P2;PMS_P1;PMS_P2;Temp;Humidity;BMP_temperature;BMP_pressure;BME280_temperature;BME280_humidity;BME280_pressure;Samples;Min_cycle;Max_cycle;Signal;HPM_P1;HPM_P2
2022/08/23 05:02:20;;;;;;;4.28;2.80;;;16.00;99.50;;;;;;5523565;23;20051;-73
2022/08/23 05:04:46;;;;;;;4.38;2.78;;;16.10;99.90;;;;;;4927215;29;20028;-74
2022/08/23 05:07:14;;;;;;;4.07;2.75;;;16.10;99.90;;;;;;4922919;29;20230;-72
2022/08/23 05:09:40;;;;;;;5.97;3.10;;;16.20;99.90;;;;;;4920471;29;20028;-73
2022/08/23 05:12:07;;;;;;;5.68;3.30;;;16.20;99.90;;;;;;4931094;29;20051;-74
2022/08/23 05:14:33;;;;;;;5.45;2.70;;;16.40;99.90;;;;;;4916189;29;20070;-74
2022/08/23 05:17:01;;;;;;;7.05;2.80;;;16.40;99.70;;;;;;4930776;29;20027;-72
2022/08/23 05:19:27;;;;;;;7.85;3.10;;;16.40;99.50;;;;;;4931334;29;20163;-73
2022/08/23 05:21:53;;;;;;;9.13;3.45;;;16.50;99.10;;;;;;4948072;29;20309;-74
2022/08/23 05:24:20;;;;;;;9.30;3.00;;;16.60;99.40;;;;;;4931417;29;20063;-74
2022/08/23 05:26:46;;;;;;;5.90;3.30;;;16.70;99.20;;;;;;4931445;29;20202;-72
2022/08/23 05:29:12;;;;;;;6.93;3.30;;;16.80;99.00;;;;;;4930732;29;20091;-72
2022/08/23 05:31:48;;;;;;;7.30;2.70;;;16.90;97.90;;;;;;4948172;29;20039;-73
2022/08/23 05:34:15;;;;;;;5.95;2.90;;;17.00;98.00;;;;;;4930916;29;20225;-74
2022/08/23 05:36:46;;;;;;;7.75;3.58;;;17.00;98.30;;;;;;4931189;29;20114;-74
2022/08/23 05:39:14;;;;;;;4.60;3.20;;;17.20;97.90;;;;;;4930829;29;20086;-74
2022/08/23 05:41:41;;;;;;;5.93;3.05;;;17.20;97.60;;;;;;4915749;29;20032;-75
2022/08/23 05:44:09;;;;;;;6.07;3.10;;;17.40;96.80;;;;;;4915140;29;20027;-74
2022/08/23 05:46:36;;;;;;;6.15;3.10;;;17.50;96.70;;;;;;4931214;29;20209;-74
2022/08/23 05:49:20;;;;;;;4.75;2.90;;;17.60;96.30;;;;;;4931005;29;20035;-74
2022/08/23 05:51:50;;;;;;;5.30;2.90;;;17.70;96.00;;;;;;4930809;29;20241;-74
2022/08/23 05:54:16;;;;;;;5.80;3.08;;;17.80;95.90;;;;;;4931929;29;20030;-75
2022/08/23 05:56:46;;;;;;;7.65;3.40;;;17.80;95.60;;;;;;4931003;29;20293;-74
2022/08/23 05:59:15;;;;;;;7.53;3.00;;;17.90;95.30;;;;;;4927233;29;20303;-75
2022/08/23 06:01:43;;;;;;;4.38;2.90;;;17.90;95.10;;;;;;4911609;29;20040;-72
2022/08/23 06:04:18;;;;;;;6.82;2.90;;;18.10;94.90;;;;;;4911361;29;20218;-74
2022/08/23 06:06:44;;;;;;;4.95;3.05;;;18.20;94.60;;;;;;4911663;29;20036;-76
2022/08/23 06:09:15;;;;;;;4.40;2.70;;;18.20;94.40;;;;;;4912504;29;20082;-74
2022/08/23 06:11:46;;;;;;;9.00;3.42;;;18.20;94.30;;;;;;4915153;29;20024;-74
2022/08/23 06:14:13;;;;;;;4.57;2.60;;;18.30;94.00;;;;;;4930006;29;20024;-73
2022/08/23 06:16:45;;;;;;;7.03;2.38;;;18.40;93.60;;;;;;4930677;29;20115;-75
2022/08/23 06:19:14;;;;;;;7.97;3.13;;;18.50;93.50;;;;;;4930010;29;20460;-74
2022/08/23 06:21:51;;;;;;;5.35;3.03;;;18.70;93.10;;;;;;4947864;29;20048;-75
2022/08/23 06:24:31;;;;;;;5.60;3.33;;;18.80;93.10;;;;;;4930542;29;20098;-74
2022/08/23 06:27:11;;;;;;;5.07;2.95;;;18.80;92.70;;;;;;4930326;29;20213;-75
2022/08/23 06:29:41;;;;;;;5.43;3.08;;;18.90;92.50;;;;;;4914705;29;20030;-76
2022/08/23 06:32:25;;;;;;;4.55;2.58;;;18.90;92.40;;;;;;4932988;29;20141;-75
2022/08/23 06:35:11;;;;;;;7.78;3.03;;;19.00;92.40;;;;;;4944934;29;20103;-76
2022/08/23 06:37:45;;;;;;;7.22;4.05;;;19.10;92.20;;;;;;4930670;29;20317;-74
2022/08/23 06:43:59;;;;;;;4.95;3.47;;;19.20;91.90;;;;;;4944895;29;20098;-77
2022/08/23 06:46:31;;;;;;;6.95;3.60;;;19.30;92.00;;;;;;4914091;29;20344;-74
2022/08/23 06:49:04;;;;;;;7.30;3.20;;;19.30;92.20;;;;;;4929448;29;20384;-74
2022/08/23 06:54:51;;;;;;;5.32;3.20;;;19.60;92.00;;;;;;4926567;29;20217;-74
2022/08/23 06:57:39;;;;;;;5.78;3.20;;;19.60;91.90;;;;;;4915411;29;20058;-75
2022/08/23 07:00:42;;;;;;;;;;;19.60;91.70;;;;;;4926386;29;20094;-73
2022/08/23 07:03:15;;;;;;;9.90;3.85;;;19.80;91.70;;;;;;4910451;29;19946;-74
2022/08/23 07:06:01;;;;;;;9.18;3.90;;;19.90;91.40;;;;;;4911342;29;20052;-77
2022/08/23 07:08:30;;;;;;;10.77;3.80;;;19.90;91.30;;;;;;4924330;29;20099;-75
2022/08/23 07:11:01;;;;;;;8.48;3.53;;;20.10;91.10;;;;;;4942419;29;20071;-74
2022/08/23 07:13:27;;;;;;;8.45;3.65;;;20.20;90.90;;;;;;4929430;29;20083;-75
2022/08/23 07:15:58;;;;;;;11.75;4.57;;;20.30;90.80;;;;;;4910129;29;20043;-75
2022/08/23 07:18:24;;;;;;;8.02;4.25;;;20.20;90.80;;;;;;4928871;29;20020;-74
2022/08/23 07:20:57;;;;;;;8.75;4.18;;;20.40;90.50;;;;;;4928804;29;20110;-73
2022/08/23 07:23:26;;;;;;;9.38;4.43;;;20.40;90.50;;;;;;4929284;29;20032;-75
2022/08/23 07:25:53;;;;;;;6.80;3.60;;;20.40;90.40;;;;;;4928965;29;20027;-72
2022/08/23 07:28:21;;;;;;;8.63;3.70;;;20.60;90.30;;;;;;4928541;29;20071;-71
2022/08/23 07:30:48;;;;;;;9.18;4.00;;;20.80;88.90;;;;;;4928816;29;20035;-74
2022/08/23 07:33:14;;;;;;;9.95;3.80;;;20.80;87.10;;;;;;4927106;29;20034;-72
2022/08/23 07:36:00;;;;;;;9.38;4.00;;;20.90;86.80;;;;;;4943761;29;20019;-72
2022/08/23 07:38:27;;;;;;;10.05;3.75;;;21.00;86.20;;;;;;4927928;29;20110;-72
2022/08/23 07:40:53;;;;;;;7.75;3.90;;;21.20;85.50;;;;;;4927696;29;20028;-72
2022/08/23 07:43:19;;;;;;;6.60;3.20;;;21.30;84.80;;;;;;4927576;29;20157;-72
2022/08/23 07:45:50;;;;;;;9.77;4.25;;;21.40;84.40;;;;;;4924857;29;20251;-70
2022/08/23 07:48:16;;;;;;;8.35;3.15;;;21.50;84.10;;;;;;4909170;29;20080;-73
2022/08/23 07:51:08;;;;;;;7.95;3.78;;;21.60;84.10;;;;;;4926606;29;20032;-73
2022/08/23 07:53:35;;;;;;;10.13;3.40;;;21.70;83.40;;;;;;4909755;29;20020;-73
2022/08/23 07:56:12;;;;;;;12.55;3.80;;;21.80;82.80;;;;;;4893515;29;20234;-73
2022/08/23 07:59:03;;;;;;;8.25;3.55;;;22.00;82.10;;;;;;4941486;29;20282;-74
2022/08/23 08:01:47;;;;;;;7.15;3.50;;;22.10;81.90;;;;;;4903189;29;20031;-75
2022/08/23 08:04:13;;;;;;;8.63;3.92;;;22.30;81.40;;;;;;4927930;29;20062;-77
2022/08/23 08:06:49;;;;;;;9.90;3.78;;;22.40;80.80;;;;;;4928263;29;20032;-78
2022/08/23 08:09:19;;;;;;;8.35;3.25;;;22.50;80.70;;;;;;4909013;29;20024;-74
2022/08/23 08:14:41;;;;;;;7.65;3.10;;;22.70;79.70;;;;;;4925872;29;20337;-76
2022/08/23 08:18:12;;;;;;;7.50;3.00;;;22.90;79.00;;;;;;4926639;29;20027;-75
2022/08/23 08:20:57;;;;;;;9.13;3.17;;;23.10;78.00;;;;;;4941243;29;20226;-76
2022/08/23 08:23:54;;;;;;;7.82;3.10;;;23.30;77.10;;;;;;4943599;29;20043;-74
2022/08/23 08:26:54;;;;;;;6.35;3.03;;;23.40;76.90;;;;;;4943743;29;20440;-72
2022/08/23 08:29:51;;;;;;;8.40;2.88;;;23.60;76.10;;;;;;4903465;29;20414;-70
2022/08/23 08:32:42;;;;;;;9.10;3.60;;;23.70;75.70;;;;;;4850667;29;20036;-72
2022/08/23 08:35:19;;;;;;;6.53;2.53;;;23.80;75.10;;;;;;4865502;29;20389;-72
2022/08/23 08:37:53;;;;;;;5.80;2.60;;;24.00;75.20;;;;;;4862211;29;20041;-73
2022/08/23 08:40:47;;;;;;;13.35;3.80;;;24.10;74.80;;;;;;4835390;29;20077;-72
2022/08/23 08:43:56;;;;;;;8.15;2.40;;;24.30;73.80;;;;;;4850444;29;20041;-72
2022/08/23 08:46:48;;;;;;;8.05;3.10;;;24.40;73.40;;;;;;4850629;29;20030;-72
2022/08/23 08:49:52;;;;;;;8.43;3.05;;;24.40;73.10;;;;;;4862705;29;20363;-72
2022/08/23 09:04:39;;;;;;;9.07;2.83;;;25.10;70.80;;;;;;4774536;30;20065;-72
2022/08/23 09:12:11;;;;;;;6.05;2.50;;;25.30;69.80;;;;;;4793242;30;20030;-72
2022/08/23 09:33:07;;;;;;;6.20;2.58;;;25.70;65.60;;;;;;4878283;29;20092;-72
2022/08/23 09:36:16;;;;;;;5.90;2.10;;;25.90;64.10;;;;;;4907548;29;20028;-72
2022/08/23 10:10:22;;;;;;;;;;;;;;;;;;;;;
2022/08/23 10:13:22;;;;;;;4.05;1.33;;;27.00;56.80;;;;;;4725426;30;20102;-75
2022/08/23 10:31:50;;;;;;;3.00;1.23;;;27.40;54.50;;;;;;4893918;29;20080;-75
2022/08/23 10:46:43;;;;;;;;;;;;;;;;;;;;;
2022/08/23 10:54:05;;;;;;;4.18;1.30;;;27.70;54.40;;;;;;4724349;30;20353;-74
2022/08/23 10:57:14;;;;;;;3.83;1.13;;;28.00;53.80;;;;;;4716882;30;20068;-74
2022/08/23 11:00:12;;;;;;;3.95;1.25;;;28.30;53.60;;;;;;4709868;30;20036;-73
2022/08/23 11:03:28;;;;;;;6.57;1.15;;;28.50;53.50;;;;;;4726895;30;20273;-72
2022/08/23 11:07:03;;;;;;;3.80;1.40;;;28.80;53.60;;;;;;4757632;30;20090;-73
2022/08/23 11:10:20;;;;;;;4.35;1.10;;;29.10;53.60;;;;;;4771778;30;20040;-73
2022/08/23 11:20:52;;;;;;;5.82;1.50;;;29.80;51.80;;;;;;4776828;30;20069;-73
2022/08/23 11:23:57;;;;;;;2.47;1.02;;;30.50;52.00;;;;;;4775154;30;20455;-73
2022/08/23 11:26:56;;;;;;;4.78;1.60;;;31.00;51.40;;;;;;4867699;29;20048;-73
2022/08/23 11:29:51;;;;;;;2.80;1.05;;;31.60;50.20;;;;;;4851468;29;20349;-73
2022/08/23 11:32:41;;;;;;;4.30;1.27;;;32.10;49.70;;;;;;4883586;29;20048;-72
2022/08/23 11:35:48;;;;;;;2.83;1.10;;;32.80;48.70;;;;;;4903114;29;20330;-72
2022/08/23 11:38:47;;;;;;;4.10;1.27;;;33.50;48.30;;;;;;4905302;29;20108;-72
2022/08/23 11:42:00;;;;;;;3.35;1.20;;;34.00;47.50;;;;;;4874646;29;20052;-76
2022/08/23 11:45:11;;;;;;;3.10;1.00;;;35.00;46.00;;;;;;4884095;29;20036;-72
2022/08/23 11:47:49;;;;;;;3.42;1.30;;;36.00;45.70;;;;;;4855019;29;20037;-74
2022/08/23 11:50:58;;;;;;;4.50;1.07;;;36.30;44.90;;;;;;4885810;29;20037;-73
2022/08/23 11:53:48;;;;;;;5.25;1.10;;;37.60;43.90;;;;;;4835916;29;20046;-72
2022/08/23 11:56:28;;;;;;;2.72;0.98;;;38.00;44.00;;;;;;4869570;29;20064;-72
2022/08/23 11:59:18;;;;;;;1.95;0.80;;;37.30;43.30;;;;;;4885725;29;20053;-72
2022/08/23 12:01:45;;;;;;;2.40;1.38;;;37.90;43.30;;;;;;4870274;29;20036;-73
2022/08/23 12:04:56;;;;;;;2.95;1.10;;;38.30;42.90;;;;;;4855706;29;20063;-73
2022/08/23 12:07:44;;;;;;;2.75;1.10;;;39.20;42.20;;;;;;4904900;29;20024;-73
2022/08/23 12:10:44;;;;;;;5.03;1.10;;;39.40;42.20;;;;;;4906318;29;20076;-73
2022/08/23 12:13:24;;;;;;;2.25;1.00;;;40.30;43.40;;;;;;4904873;29;20056;-74
2022/08/23 12:16:27;;;;;;;2.45;0.90;;;41.10;42.90;;;;;;4906677;29;20047;-73
2022/08/23 12:19:26;;;;;;;3.08;0.90;;;41.30;42.50;;;;;;4904163;29;20116;-74
2022/08/23 12:21:55;;;;;;;3.20;1.30;;;41.30;42.50;;;;;;4922897;29;20074;-73
2022/08/23 12:24:47;;;;;;;4.70;1.08;;;42.00;42.80;;;;;;4924430;29;20036;-74
2022/08/23 12:27:33;;;;;;;3.25;1.00;;;42.50;42.20;;;;;;4907894;29;20237;-74
2022/08/23 12:30:05;;;;;;;4.43;1.98;;;42.90;41.20;;;;;;4924929;29;20051;-74
2022/08/23 12:32:52;;;;;;;2.08;0.77;;;43.30;39.90;;;;;;4924481;29;20049;-74
2022/08/23 12:35:38;;;;;;;2.30;1.00;;;43.30;39.10;;;;;;4924084;29;20032;-73
2022/08/23 12:38:25;;;;;;;3.38;0.80;;;43.50;39.60;;;;;;4924669;29;20108;-75
2022/08/23 12:40:55;;;;;;;4.55;1.10;;;44.10;38.80;;;;;;4924645;29;20036;-74
2022/08/23 12:43:28;;;;;;;3.53;0.88;;;45.00;38.20;;;;;;4923181;29;20103;-74
2022/08/23 12:45:59;;;;;;;3.58;0.93;;;44.40;38.80;;;;;;4924645;29;20103;-74
2022/08/23 12:48:31;;;;;;;1.95;0.80;;;45.00;38.10;;;;;;4924250;29;20024;-74
2022/08/23 12:51:11;;;;;;;2.20;0.90;;;45.50;38.10;;;;;;4924331;29;20024;-74
2022/08/23 12:53:44;;;;;;;4.47;1.05;;;45.80;37.40;;;;;;4923989;29;20027;-75
2022/08/23 12:56:14;;;;;;;2.47;0.88;;;45.30;37.30;;;;;;4924548;29;20036;-74
2022/08/23 12:58:50;;;;;;;5.22;1.10;;;46.00;37.50;;;;;;4923372;29;20036;-74
2022/08/23 13:01:37;;;;;;;3.85;1.00;;;46.50;37.60;;;;;;4922856;29;20099;-74
2022/08/23 13:04:13;;;;;;;5.80;0.98;;;47.30;37.10;;;;;;4940605;29;20051;-73
2022/08/23 13:06:47;;;;;;;2.17;0.80;;;47.50;36.70;;;;;;4943196;29;20181;-73
2022/08/23 13:09:19;;;;;;;4.47;2.72;;;46.90;36.80;;;;;;4907260;29;20058;-72
2022/08/23 13:11:46;;;;;;;3.90;1.30;;;46.90;37.20;;;;;;4924298;29;20044;-73
2022/08/23 13:14:27;;;;;;;3.97;1.38;;;47.10;36.60;;;;;;4923213;29;20136;-73
2022/08/23 13:16:57;;;;;;;3.67;1.20;;;47.00;36.40;;;;;;4923771;29;20040;-73
2022/08/23 13:19:32;;;;;;;4.88;1.20;;;47.60;36.50;;;;;;4923241;29;20139;-74
2022/08/23 13:22:16;;;;;;;4.00;1.10;;;47.80;36.50;;;;;;4906916;29;20035;-74
2022/08/23 13:25:04;;;;;;;2.63;1.00;;;47.80;36.30;;;;;;4923984;29;20476;-72
2022/08/23 13:27:48;;;;;;;2.03;0.90;;;47.40;36.30;;;;;;4923677;29;20072;-72
2022/08/23 13:30:16;;;;;;;5.00;1.00;;;45.30;36.80;;;;;;4925365;29;20103;-72
2022/08/23 13:32:48;;;;;;;5.15;0.90;;;42.80;38.50;;;;;;4946321;29;20043;-72
2022/08/23 13:35:48;;;;;;;2.35;1.02;;;41.10;38.70;;;;;;4914101;29;20036;-73
2022/08/23 13:38:17;;;;;;;2.97;0.77;;;40.50;40.00;;;;;;4895608;29;20066;-74
2022/08/23 13:40:48;;;;;;;3.17;1.10;;;42.90;39.60;;;;;;4930177;29;20238;-72
2022/08/23 13:43:20;;;;;;;4.03;1.02;;;45.20;38.10;;;;;;4946409;29;20373;-73
2022/08/23 13:45:49;;;;;;;3.42;0.90;;;46.80;37.40;;;;;;4947585;29;20036;-72
2022/08/23 13:48:21;;;;;;;3.75;0.95;;;47.20;36.80;;;;;;4914850;29;20119;-72
2022/08/23 13:50:48;;;;;;;2.75;0.93;;;46.40;36.90;;;;;;4947711;29;20034;-72
2022/08/23 13:53:16;;;;;;;2.70;0.90;;;47.20;36.60;;;;;;4915226;29;20102;-73
2022/08/23 13:55:53;;;;;;;2.90;0.98;;;48.10;36.00;;;;;;4914674;29;20114;-73
2022/08/23 13:58:38;;;;;;;3.83;1.10;;;49.40;36.00;;;;;;4914488;29;20102;-74
2022/08/23 14:01:18;;;;;;;2.75;1.00;;;47.70;35.70;;;;;;4915407;29;20024;-72
2022/08/23 14:03:44;;;;;;;2.38;1.10;;;45.70;36.50;;;;;;4914858;29;20051;-72
2022/08/23 14:06:12;;;;;;;4.38;1.25;;;45.10;37.00;;;;;;4930685;29;20031;-72
2022/08/23 14:08:38;;;;;;;1.95;0.90;;;46.20;37.20;;;;;;4914965;29;20019;-72
2022/08/23 14:11:04;;;;;;;2.97;0.90;;;47.10;36.90;;;;;;4947679;29;20036;-73
2022/08/23 14:13:32;;;;;;;4.07;0.93;;;48.20;36.70;;;;;;4946868;29;20039;-72
2022/08/23 14:16:05;;;;;;;3.22;0.95;;;49.40;36.10;;;;;;4947637;29;20201;-73
2022/08/23 14:18:34;;;;;;;4.10;0.93;;;48.30;35.60;;;;;;4914692;29;20035;-74
2022/08/23 14:21:00;;;;;;;2.45;0.63;;;48.20;36.00;;;;;;4911342;29;20095;-74
2022/08/23 14:23:26;;;;;;;4.30;0.80;;;48.80;35.60;;;;;;4930074;29;20035;-75
2022/08/23 14:25:55;;;;;;;2.70;1.10;;;48.50;35.40;;;;;;4947409;29;20032;-74
2022/08/23 14:28:25;;;;;;;3.22;1.02;;;49.30;35.40;;;;;;4946660;29;20091;-75
2022/08/23 14:30:50;;;;;;;2.55;1.10;;;48.50;35.20;;;;;;4947534;29;20039;-73
2022/08/23 14:33:16;;;;;;;3.60;0.73;;;47.40;35.40;;;;;;4947136;29;20036;-73
2022/08/23 14:35:42;;;;;;;1.93;0.70;;;47.20;36.00;;;;;;4929889;29;20083;-73
2022/08/23 14:38:09;;;;;;;2.45;0.90;;;47.10;35.30;;;;;;4930301;29;20031;-75
2022/08/23 14:40:35;;;;;;;1.55;0.80;;;49.40;36.00;;;;;;4946572;29;20050;-74
2022/08/23 14:43:04;;;;;;;3.28;1.25;;;50.50;34.80;;;;;;4929996;29;20111;-74
2022/08/23 14:45:30;;;;;;;;;;;50.90;34.50;;;;;;4947026;29;20392;-74
2022/08/23 14:47:56;;;;;;;3.08;0.90;;;51.30;34.70;;;;;;4946887;29;20003;-74
2022/08/23 14:50:22;;;;;;;2.85;0.80;;;51.20;34.90;;;;;;4946503;29;20059;-74
2022/08/23 14:52:47;;;;;;;1.50;0.70;;;51.10;34.30;;;;;;4947294;29;20090;-73
2022/08/23 14:55:16;;;;;;;2.50;1.08;;;51.90;35.10;;;;;;4946794;29;20031;-72
2022/08/23 14:57:42;;;;;;;3.35;1.02;;;52.70;34.90;;;;;;4946242;29;20318;-72
2022/08/23 15:00:12;;;;;;;2.55;1.00;;;52.40;34.20;;;;;;4946726;29;20031;-72
2022/08/23 15:02:40;;;;;;;2.55;0.85;;;51.90;34.10;;;;;;4946242;29;20110;-73
2022/08/23 15:05:07;;;;;;;2.72;0.95;;;50.00;34.50;;;;;;4946505;29;20198;-73
2022/08/23 15:07:33;;;;;;;2.90;1.02;;;49.80;34.70;;;;;;4929074;29;20317;-73
2022/08/23 15:09:59;;;;;;;3.10;0.95;;;50.50;35.40;;;;;;4946358;29;20043;-74
2022/08/23 15:12:25;;;;;;;2.47;1.00;;;51.80;34.70;;;;;;4946178;29;20051;-73
2022/08/23 15:14:51;;;;;;;1.75;0.80;;;52.10;34.70;;;;;;4946397;29;20028;-74
2022/08/23 15:17:21;;;;;;;;;;;52.10;34.40;;;;;;4946786;29;20217;-73
2022/08/23 15:19:47;;;;;;;3.47;1.00;;;52.20;33.90;;;;;;4946388;29;20193;-73
2022/08/23 15:22:13;;;;;;;1.85;0.93;;;51.80;34.30;;;;;;4929386;29;20039;-73
2022/08/23 15:24:39;;;;;;;2.95;1.10;;;51.40;33.80;;;;;;4945906;29;20066;-73
2022/08/23 15:27:06;;;;;;;1.98;0.73;;;49.90;34.10;;;;;;4946501;29;20030;-72
2022/08/23 15:29:31;;;;;;;4.03;1.00;;;49.40;34.20;;;;;;4946018;29;20035;-73
2022/08/23 15:31:57;;;;;;;2.00;1.00;;;48.30;34.90;;;;;;4946563;29;20075;-74
2022/08/23 15:34:23;;;;;;;3.08;0.95;;;46.70;35.70;;;;;;4945675;29;20035;-73
2022/08/23 15:36:50;;;;;;;2.17;0.90;;;45.40;36.70;;;;;;4945866;29;20047;-73
2022/08/23 15:39:19;;;;;;;2.30;1.05;;;45.50;36.30;;;;;;4908594;29;20042;-72
2022/08/23 15:41:45;;;;;;;3.35;1.08;;;45.50;37.00;;;;;;4945784;29;20063;-72
2022/08/23 15:44:11;;;;;;;3.35;1.20;;;46.40;36.40;;;;;;4946007;29;20043;-74
2022/08/23 15:46:39;;;;;;;1.95;0.93;;;45.50;36.70;;;;;;4928216;29;20034;-77
2022/08/23 15:49:14;;;;;;;2.97;1.13;;;44.50;37.20;;;;;;4945766;29;20337;-75
2022/08/23 15:51:41;;;;;;;2.67;1.10;;;43.70;37.60;;;;;;4928671;29;20308;-74
2022/08/23 15:54:08;;;;;;;2.63;1.00;;;43.40;38.00;;;;;;4912740;29;20099;-75
2022/08/23 15:56:47;;;;;;;2.28;1.10;;;44.20;38.50;;;;;;4945487;29;20036;-73
2022/08/23 15:59:16;;;;;;;2.20;1.02;;;45.40;37.20;;;;;;4913304;29;20217;-72
2022/08/23 16:01:42;;;;;;;2.78;0.90;;;45.60;36.70;;;;;;4945375;29;20051;-75
2022/08/23 16:04:09;;;;;;;2.85;0.88;;;45.50;36.80;;;;;;4925417;29;20046;-73
2022/08/23 16:06:43;;;;;;;2.65;1.05;;;45.30;36.60;;;;;;4926212;29;20047;-73
2022/08/23 16:09:20;;;;;;;2.28;1.00;;;42.80;37.60;;;;;;4926641;29;20040;-74
2022/08/23 16:11:46;;;;;;;9.15;1.35;;;41.10;38.70;;;;;;4909223;29;20043;-73
2022/08/23 16:14:12;;;;;;;3.13;1.10;;;39.80;39.80;;;;;;4926646;29;20020;-71
2022/08/23 16:16:39;;;;;;;3.10;1.50;;;38.30;40.80;;;;;;4926032;29;20321;-73
2022/08/23 16:19:07;;;;;;;3.65;1.40;;;37.80;41.50;;;;;;4926205;29;20055;-74
2022/08/23 16:21:33;;;;;;;3.20;1.48;;;36.80;42.30;;;;;;4906360;29;20063;-75
2022/08/23 16:23:59;;;;;;;3.03;1.33;;;36.10;42.90;;;;;;4925593;29;20140;-74
2022/08/23 16:26:31;;;;;;;6.07;1.42;;;36.00;44.00;;;;;;4909029;29;20056;-74
2022/08/23 16:29:02;;;;;;;4.55;1.50;;;36.00;43.30;;;;;;4925044;29;20039;-75
2022/08/23 16:31:28;;;;;;;2.90;1.13;;;36.70;43.20;;;;;;4926119;29;20340;-76
2022/08/23 16:33:57;;;;;;;4.47;1.33;;;36.60;42.70;;;;;;4924770;29;20024;-74
2022/08/23 16:36:24;;;;;;;5.90;1.50;;;36.00;42.80;;;;;;4926140;29;20067;-74
2022/08/23 16:38:52;;;;;;;2.78;1.40;;;35.10;43.90;;;;;;4905521;29;20333;-75
2022/08/23 16:41:24;;;;;;;;;;;34.60;44.30;;;;;;4907573;29;20326;-75
2022/08/23 16:43:50;;;;;;;3.70;1.48;;;34.30;45.10;;;;;;4905608;29;19953;-74
2022/08/23 16:46:17;;;;;;;2.58;1.45;;;34.80;44.50;;;;;;4906916;29;20041;-74
2022/08/23 16:48:44;;;;;;;4.38;1.42;;;34.10;44.70;;;;;;4890067;29;20036;-74
2022/08/23 16:51:12;;;;;;;3.50;1.55;;;33.90;45.50;;;;;;4906926;29;20052;-73
2022/08/23 16:53:38;;;;;;;3.15;1.60;;;33.70;45.60;;;;;;4914181;29;20020;-74
2022/08/23 16:56:06;;;;;;;3.20;1.70;;;33.40;46.00;;;;;;4915940;29;20091;-75
2022/08/23 16:58:33;;;;;;;7.40;2.20;;;34.40;45.40;;;;;;4898033;29;20051;-74
2022/08/23 17:01:14;;;;;;;4.00;1.48;;;35.40;45.00;;;;;;4900462;29;20028;-73
2022/08/23 17:03:43;;;;;;;3.30;1.10;;;36.00;43.70;;;;;;4913305;29;20051;-72
2022/08/23 17:06:18;;;;;;;2.53;1.30;;;36.20;43.40;;;;;;4913440;29;20076;-73
2022/08/23 17:08:44;;;;;;;3.63;1.60;;;36.20;43.50;;;;;;4912787;29;20100;-71
2022/08/23 17:11:15;;;;;;;2.88;1.17;;;35.70;43.50;;;;;;4916550;29;20051;-71
2022/08/23 17:13:41;;;;;;;3.85;1.50;;;35.10;44.10;;;;;;4913722;29;20099;-71
2022/08/23 17:16:09;;;;;;;3.17;1.67;;;34.40;45.00;;;;;;4917608;29;20342;-73
2022/08/23 17:18:36;;;;;;;2.83;1.17;;;33.80;45.70;;;;;;4912251;29;20076;-73
2022/08/23 17:21:03;;;;;;;3.88;1.42;;;33.30;46.30;;;;;;4913749;29;20028;-73
2022/08/23 17:23:29;;;;;;;4.30;1.30;;;32.90;47.10;;;;;;4900453;29;20378;-73
2022/08/23 17:25:55;;;;;;;3.80;1.20;;;32.60;46.80;;;;;;4906433;29;20115;-71
2022/08/23 17:28:21;;;;;;;4.55;1.88;;;32.20;47.60;;;;;;4906373;29;20055;-71
2022/08/23 17:30:46;;;;;;;4.03;1.67;;;31.90;48.10;;;;;;4905978;29;20269;-72
2022/08/23 17:33:12;;;;;;;2.58;1.27;;;31.90;48.20;;;;;;4906320;29;20040;-70
2022/08/23 17:35:38;;;;;;;3.42;1.48;;;31.70;48.50;;;;;;4905986;29;20029;-71
2022/08/23 17:38:05;;;;;;;3.50;1.38;;;31.70;48.60;;;;;;4906654;29;20041;-71
2022/08/23 17:40:35;;;;;;;4.20;1.45;;;31.50;48.40;;;;;;4904876;29;20226;-70
2022/08/23 17:43:02;;;;;;;4.40;1.63;;;31.30;48.60;;;;;;4906583;29;20183;-73
2022/08/23 17:45:31;;;;;;;3.95;1.65;;;31.20;49.10;;;;;;4906566;29;20048;-73
2022/08/23 17:47:58;;;;;;;4.07;1.40;;;31.00;49.30;;;;;;4906724;29;20306;-74
2022/08/23 17:50:24;;;;;;;5.70;1.80;;;30.80;49.40;;;;;;4905551;29;20353;-73
2022/08/23 17:52:53;;;;;;;4.10;1.80;;;30.60;49.70;;;;;;4905191;29;20515;-73
2022/08/23 17:55:19;;;;;;;3.33;1.63;;;30.30;50.20;;;;;;4905602;29;20037;-73
2022/08/23 17:57:46;;;;;;;4.03;1.52;;;30.10;50.40;;;;;;4905271;29;20036;-72
2022/08/23 18:00:13;;;;;;;3.85;1.58;;;29.80;50.70;;;;;;4889882;29;20036;-72
2022/08/23 18:02:40;;;;;;;3.80;1.63;;;29.60;51.10;;;;;;4910843;29;20107;-73
2022/08/23 18:05:07;;;;;;;3.38;1.48;;;29.40;51.50;;;;;;4893004;29;20373;-73
2022/08/23 18:07:34;;;;;;;3.88;1.80;;;29.30;51.60;;;;;;4892558;29;20106;-73
2022/08/23 18:10:00;;;;;;;4.55;1.60;;;29.20;51.80;;;;;;4892942;29;20107;-72
2022/08/23 18:12:26;;;;;;;3.53;1.92;;;29.00;52.10;;;;;;4925566;29;20063;-72
2022/08/23 18:14:54;;;;;;;4.00;1.60;;;28.90;52.40;;;;;;4924897;29;20247;-72
2022/08/23 18:17:20;;;;;;;3.95;1.40;;;28.70;52.50;;;;;;4909464;29;20322;-72
2022/08/23 18:19:46;;;;;;;3.75;1.70;;;28.60;52.70;;;;;;4896061;29;20064;-72
2022/08/23 18:22:12;;;;;;;3.25;1.70;;;28.50;53.30;;;;;;4918371;29;20260;-72
2022/08/23 18:24:38;;;;;;;3.05;1.50;;;28.40;53.40;;;;;;4944954;29;20066;-72
2022/08/23 18:29:48;;;;;;;4.10;1.42;;;28.20;54.20;;;;;;4930077;29;20110;-72
2022/08/23 18:32:20;;;;;;;4.25;2.10;;;28.00;54.40;;;;;;4930498;29;20036;-72
2022/08/23 18:34:55;;;;;;;6.28;2.35;;;27.90;54.50;;;;;;4913798;29;20035;-72
2022/08/23 18:37:26;;;;;;;3.47;1.70;;;27.80;55.40;;;;;;4947325;29;20079;-73
2022/08/23 18:39:52;;;;;;;4.03;2.00;;;27.60;55.10;;;;;;4947315;29;20031;-72
2022/08/23 18:42:33;;;;;;;4.78;1.80;;;27.40;55.80;;;;;;4947305;29;20040;-73
2022/08/23 18:44:59;;;;;;;4.93;2.00;;;27.30;56.00;;;;;;4914246;29;20036;-75
2022/08/23 18:47:25;;;;;;;6.30;2.10;;;27.10;56.00;;;;;;4947021;29;20028;-74
2022/08/23 18:49:51;;;;;;;4.43;2.00;;;27.00;56.50;;;;;;4946648;29;20341;-73
2022/08/23 18:52:17;;;;;;;4.35;2.15;;;26.90;56.80;;;;;;4947048;29;20036;-73
2022/08/23 18:54:43;;;;;;;4.07;2.10;;;26.80;57.20;;;;;;4946522;29;20059;-72
2022/08/23 18:57:09;;;;;;;4.78;1.92;;;26.70;57.40;;;;;;4930016;29;20043;-73
2022/08/23 18:59:34;;;;;;;7.43;2.80;;;26.60;57.50;;;;;;4946966;29;20027;-73
2022/08/23 19:02:00;;;;;;;5.78;2.30;;;26.50;57.70;;;;;;4946701;29;20032;-73
2022/08/23 19:04:26;;;;;;;5.22;2.60;;;26.40;58.10;;;;;;4946662;29;20418;-73
2022/08/23 19:06:53;;;;;;;4.72;2.40;;;26.30;58.40;;;;;;4929166;29;20055;-73
2022/08/23 19:09:18;;;;;;;5.55;2.28;;;26.10;58.70;;;;;;4947045;29;20032;-73
2022/08/23 19:11:44;;;;;;;5.55;2.53;;;26.00;59.20;;;;;;4946579;29;20035;-72
2022/08/23 19:14:11;;;;;;;4.95;2.60;;;25.90;59.60;;;;;;4946677;29;20047;-73
2022/08/23 19:16:39;;;;;;;5.78;2.45;;;25.80;60.10;;;;;;4929086;29;20214;-75
2022/08/23 19:19:08;;;;;;;6.45;2.47;;;25.70;60.40;;;;;;4946579;29;20036;-72
2022/08/23 19:21:34;;;;;;;4.47;2.58;;;25.60;61.30;;;;;;4946401;29;20272;-71
2022/08/23 19:24:00;;;;;;;4.57;2.30;;;25.40;61.30;;;;;;4926301;29;20095;-72
2022/08/23 19:26:33;;;;;;;4.85;2.78;;;25.30;61.70;;;;;;4946107;29;20052;-72
2022/08/23 19:29:00;;;;;;;4.95;2.83;;;25.20;62.40;;;;;;4945045;29;20182;-72
2022/08/23 19:31:27;;;;;;;5.78;2.63;;;25.10;62.90;;;;;;4944721;29;20332;-72
2022/08/23 19:33:53;;;;;;;5.25;2.60;;;25.00;62.80;;;;;;4942918;29;20381;-72
2022/08/23 19:36:19;;;;;;;5.22;2.92;;;25.00;63.20;;;;;;4946247;29;20259;-73
2022/08/23 19:38:45;;;;;;;5.18;2.92;;;24.80;63.60;;;;;;4945652;29;20046;-72
2022/08/23 19:41:10;;;;;;;6.97;2.90;;;24.70;63.80;;;;;;4945900;29;20028;-72
2022/08/23 19:43:37;;;;;;;5.45;2.88;;;24.60;63.90;;;;;;4946090;29;20031;-73
2022/08/23 19:46:12;;;;;;;4.28;2.58;;;24.60;63.90;;;;;;4946041;29;20036;-72
2022/08/23 19:51:31;;;;;;;5.75;2.70;;;24.40;64.50;;;;;;4939434;29;20039;-71
2022/08/23 19:54:03;;;;;;;6.20;3.22;;;24.20;65.20;;;;;;4945308;29;20030;-71
2022/08/23 19:56:35;;;;;;;5.90;3.15;;;24.20;65.50;;;;;;4945999;29;20039;-72
2022/08/23 19:59:04;;;;;;;7.05;3.85;;;24.20;65.40;;;;;;4945369;29;20051;-72
2022/08/23 20:01:31;;;;;;;6.20;3.28;;;24.10;65.20;;;;;;4945606;29;20044;-71
2022/08/23 20:03:56;;;;;;;7.03;3.80;;;24.20;64.80;;;;;;4944838;29;20118;-72
2022/08/23 20:06:23;;;;;;;7.20;4.35;;;24.10;65.40;;;;;;4945706;29;20074;-73
2022/08/23 20:08:50;;;;;;;7.32;4.00;;;24.20;66.00;;;;;;4928206;29;20032;-72
2022/08/23 20:11:16;;;;;;;5.78;3.17;;;24.00;66.50;;;;;;4945465;29;20031;-71
2022/08/23 20:13:41;;;;;;;6.65;3.25;;;23.90;66.00;;;;;;4945279;29;20035;-71
2022/08/23 20:16:07;;;;;;;5.38;3.67;;;23.80;65.90;;;;;;4945435;29;20051;-72
2022/08/23 20:18:33;;;;;;;6.70;3.70;;;23.70;66.40;;;;;;4945636;29;20078;-71
2022/08/23 20:20:59;;;;;;;5.53;3.38;;;23.50;66.60;;;;;;4928167;29;20140;-72
2022/08/23 20:26:09;;;;;;;8.32;3.92;;;23.40;67.10;;;;;;4945203;29;20094;-71
2022/08/23 20:28:37;;;;;;;7.10;3.92;;;23.40;67.60;;;;;;4945541;29;20373;-72
2022/08/23 20:31:21;;;;;;;7.47;3.58;;;23.30;68.00;;;;;;4944893;29;20351;-72